createdAt,value
2018-11-29T00:00:37.151Z,9.80
2018-11-29T00:03:06.888Z,7.93
2018-11-29T00:05:41.528Z,13.57
2018-11-29T00:08:15.811Z,11.20
2018-11-29T00:10:44.556Z,12.53
2018-11-29T00:13:13.260Z,7.90
2018-11-29T00:15:41.992Z,5.47
2018-11-29T00:18:10.693Z,8.63
2018-11-29T00:20:40.133Z,8.40
2018-11-29T00:23:08.853Z,11.20
2018-11-29T00:25:37.604Z,9.97
2018-11-29T00:28:06.580Z,9.63
2018-11-29T00:30:35.268Z,9.33
2018-11-29T00:33:03.777Z,11.20
2018-11-29T00:35:32.375Z,13.03
2018-11-29T00:38:01.100Z,10.57
2018-11-29T00:40:29.956Z,9.90
2018-11-29T00:42:58.644Z,6.03
2018-11-29T00:45:27.460Z,7.30
2018-11-29T00:47:56.144Z,6.97
2018-11-29T00:50:25.023Z,7.47
2018-11-29T00:52:53.712Z,12.00
2018-11-29T00:55:23.228Z,9.87
2018-11-29T00:57:52.630Z,8.17
2018-11-29T01:00:24.388Z,10.00
2018-11-29T01:02:53.265Z,8.60
2018-11-29T01:05:21.973Z,6.77
2018-11-29T01:07:50.669Z,9.27
2018-11-29T01:10:19.679Z,9.07
2018-11-29T01:12:48.896Z,10.23
2018-11-29T01:15:18.636Z,6.07
2018-11-29T01:17:48.079Z,7.37
2018-11-29T01:20:17.781Z,7.20
2018-11-29T01:22:46.482Z,12.17
2018-11-29T01:25:15.655Z,8.90
2018-11-29T01:27:47.528Z,4.90
2018-11-29T01:30:17.124Z,6.47
2018-11-29T01:32:45.820Z,6.33
2018-11-29T01:35:16.645Z,13.90
2018-11-29T01:37:45.360Z,9.37
2018-11-29T01:40:15.869Z,6.50
2018-11-29T01:42:45.776Z,9.33
2018-11-29T01:45:14.495Z,15.47
2018-11-29T01:47:43.281Z,8.30
2018-11-29T01:50:11.956Z,9.77
2018-11-29T01:52:40.673Z,9.38
2018-11-29T01:55:09.812Z,11.60
2018-11-29T01:57:38.508Z,12.70
2018-11-29T02:00:10.356Z,13.37
2018-11-29T02:02:39.064Z,8.90
2018-11-29T02:05:09.075Z,9.97
2018-11-29T02:07:37.765Z,12.33
2018-11-29T02:10:14.159Z,11.93
2018-11-29T02:12:42.860Z,11.07
2018-11-29T02:15:11.539Z,12.47
2018-11-29T02:17:40.417Z,14.70
2018-11-29T02:20:11.704Z,11.07
2018-11-29T02:22:40.404Z,8.27
2018-11-29T02:25:09.101Z,10.50
2018-11-29T02:27:37.796Z,14.00
2018-11-29T02:30:11.466Z,17.20
2018-11-29T02:32:40.180Z,13.20
2018-11-29T02:35:08.864Z,14.27
2018-11-29T02:37:37.605Z,8.90
2018-11-29T02:40:09.889Z,16.32
2018-11-29T02:42:39.377Z,7.30
2018-11-29T02:45:12.280Z,11.73
2018-11-29T02:47:40.989Z,9.57
2018-11-29T02:50:11.319Z,9.80
2018-11-29T02:52:40.001Z,7.13
2018-11-29T02:55:10.704Z,13.97
2018-11-29T02:57:39.607Z,10.73
2018-11-29T03:00:11.067Z,10.83
2018-11-29T03:02:39.781Z,7.57
2018-11-29T03:05:08.530Z,11.50
2018-11-29T03:07:37.522Z,9.77
2018-11-29T03:10:08.792Z,7.07
2018-11-29T03:12:37.495Z,7.67
2018-11-29T03:15:14.263Z,14.23
2018-11-29T03:17:43.636Z,6.55
2018-11-29T03:20:13.032Z,11.17
2018-11-29T03:22:41.785Z,7.37
2018-11-29T03:25:13.196Z,9.10
2018-11-29T03:27:42.037Z,7.17
2018-11-29T03:30:12.454Z,7.53
2018-11-29T03:32:41.163Z,9.63
2018-11-29T03:35:10.922Z,18.17
2018-11-29T03:37:39.665Z,12.50
2018-11-29T03:40:11.488Z,10.47
2018-11-29T03:42:40.221Z,5.77
2018-11-29T03:45:10.302Z,8.23
2018-11-29T03:47:39.169Z,8.65
2018-11-29T03:50:10.224Z,11.40
2018-11-29T03:52:38.916Z,10.90
2018-11-29T03:55:08.694Z,11.73
2018-11-29T03:57:37.721Z,8.33
2018-11-29T04:00:13.820Z,13.17
2018-11-29T04:02:42.706Z,3.60
2018-11-29T04:05:11.464Z,6.17
2018-11-29T04:07:40.174Z,7.00
2018-11-29T04:10:10.879Z,10.07
2018-11-29T04:12:39.613Z,10.63
2018-11-29T04:15:09.580Z,9.07
2018-11-29T04:17:40.834Z,8.70
2018-11-29T04:20:09.618Z,17.67
2018-11-29T04:22:38.383Z,7.27
2018-11-29T04:25:08.731Z,6.90
2018-11-29T04:27:37.412Z,6.03
2018-11-29T04:30:09.208Z,8.40
2018-11-29T04:32:37.897Z,11.57
2018-11-29T04:35:07.560Z,10.70
2018-11-29T04:37:36.281Z,13.65
2018-11-29T04:40:06.589Z,10.33
2018-11-29T04:42:35.344Z,10.65
2018-11-29T04:45:05.469Z,11.00
2018-11-29T04:47:34.166Z,12.13
2018-11-29T04:50:02.880Z,14.20
2018-11-29T04:52:31.568Z,15.67
2018-11-29T04:55:00.273Z,11.03
2018-11-29T04:57:28.968Z,10.13
2018-11-29T04:59:57.681Z,15.00
2018-11-29T05:02:26.440Z,14.03
2018-11-29T05:04:55.150Z,11.23
2018-11-29T05:07:23.852Z,75.57
2018-11-29T05:09:52.572Z,26.37
2018-11-29T05:12:21.346Z,17.80
2018-11-29T05:14:50.056Z,20.50
2018-11-29T05:17:18.749Z,11.17
2018-11-29T05:19:47.473Z,9.83
2018-11-29T05:22:16.241Z,14.20
2018-11-29T05:24:44.957Z,17.20
2018-11-29T05:27:13.653Z,8.85
2018-11-29T05:29:42.358Z,9.63
2018-11-29T05:32:11.049Z,9.07
2018-11-29T05:34:39.758Z,13.50
2018-11-29T05:37:08.544Z,11.53
2018-11-29T05:39:37.240Z,8.83
2018-11-29T05:42:06.089Z,11.97
2018-11-29T05:44:34.792Z,12.98
2018-11-29T05:47:03.484Z,11.90
2018-11-29T05:49:32.184Z,10.20
2018-11-29T05:52:00.947Z,9.20
2018-11-29T05:54:29.628Z,8.23
2018-11-29T05:56:59.250Z,5.97
2018-11-29T05:59:27.945Z,8.30
2018-11-29T06:01:56.645Z,8.47
2018-11-29T06:04:25.357Z,13.13
2018-11-29T06:06:54.044Z,9.50
2018-11-29T06:09:22.749Z,7.57
2018-11-29T06:11:51.437Z,8.63
2018-11-29T06:14:20.217Z,10.83
2018-11-29T06:16:48.917Z,11.50
2018-11-29T06:19:17.625Z,15.50
2018-11-29T06:21:46.320Z,18.80
2018-11-29T06:24:15.017Z,6.90
2018-11-29T06:26:43.708Z,11.47
2018-11-29T06:29:12.417Z,14.03
2018-11-29T06:31:41.128Z,5.83
2018-11-29T06:34:09.833Z,10.30
2018-11-29T06:36:38.537Z,10.23
2018-11-29T06:39:08.888Z,10.07
2018-11-29T06:41:37.580Z,11.00
2018-11-29T06:44:06.385Z,7.07
2018-11-29T06:46:35.076Z,11.00
2018-11-29T06:49:03.764Z,9.00
2018-11-29T06:51:32.452Z,11.33
2018-11-29T06:54:01.153Z,8.70
2018-11-29T06:56:30.080Z,9.78
2018-11-29T06:58:58.792Z,7.93
2018-11-29T07:01:27.477Z,8.17
2018-11-29T07:03:56.154Z,8.40
2018-11-29T07:06:24.853Z,8.60
2018-11-29T07:08:53.533Z,6.40
2018-11-29T07:11:22.233Z,11.27
2018-11-29T07:13:50.928Z,17.63
2018-11-29T07:16:19.733Z,17.90
2018-11-29T07:18:48.424Z,13.70
2018-11-29T07:21:28.686Z,6.30
2018-11-29T07:23:57.373Z,6.37
2018-11-29T07:26:26.069Z,7.43
2018-11-29T07:28:54.757Z,6.87
2018-11-29T07:31:23.457Z,6.43
2018-11-29T07:33:52.144Z,10.67
2018-11-29T07:36:20.845Z,9.17
2018-11-29T07:38:49.532Z,7.40
2018-11-29T07:41:18.233Z,9.40
2018-11-29T07:43:46.921Z,5.63
2018-11-29T07:46:15.609Z,6.33
2018-11-29T07:48:44.301Z,11.00
2018-11-29T07:51:12.999Z,6.50
2018-11-29T07:53:41.680Z,4.90
2018-11-29T07:56:10.380Z,9.87
2018-11-29T07:58:39.069Z,8.05
2018-11-29T08:01:07.765Z,7.50
2018-11-29T08:03:36.541Z,10.63
2018-11-29T08:06:05.249Z,13.87
2018-11-29T08:08:33.940Z,11.90
2018-11-29T08:11:02.436Z,5.20
2018-11-29T08:13:31.028Z,8.47
2018-11-29T08:15:59.725Z,13.93
2018-11-29T08:18:29.045Z,5.80
2018-11-29T08:20:57.746Z,10.83
2018-11-29T08:23:26.429Z,12.67
2018-11-29T08:25:55.149Z,13.00
2018-11-29T08:28:23.835Z,9.27
2018-11-29T08:30:52.537Z,13.57
2018-11-29T08:33:21.237Z,14.58
2018-11-29T08:35:49.944Z,9.20
2018-11-29T08:38:18.638Z,11.97
2018-11-29T08:40:47.353Z,14.20
2018-11-29T08:43:16.049Z,10.33
2018-11-29T08:45:44.744Z,16.93
2018-11-29T08:48:13.432Z,13.97
2018-11-29T08:50:42.136Z,9.50
2018-11-29T08:53:10.837Z,12.40
2018-11-29T08:55:39.565Z,8.43
2018-11-29T08:58:08.349Z,9.00
2018-11-29T09:00:37.049Z,10.47
2018-11-29T09:03:05.544Z,11.63
2018-11-29T09:05:34.247Z,15.27
2018-11-29T09:08:02.917Z,13.30
2018-11-29T09:10:31.974Z,20.03
2018-11-29T09:13:00.289Z,9.70
2018-11-29T09:15:29.897Z,6.95
2018-11-29T09:17:58.577Z,12.30
2018-11-29T09:20:27.597Z,14.30
2018-11-29T09:22:56.048Z,8.27
2018-11-29T09:25:24.649Z,13.67
2018-11-29T09:27:53.333Z,8.17
2018-11-29T09:30:22.861Z,13.87
2018-11-29T09:32:52.611Z,9.23
2018-11-29T09:35:21.300Z,21.53
2018-11-29T09:37:50.006Z,10.70
2018-11-29T09:40:18.853Z,13.47
2018-11-29T09:42:47.583Z,11.37
2018-11-29T09:45:17.296Z,14.27
2018-11-29T09:47:48.044Z,11.60
2018-11-29T09:50:17.296Z,13.00
2018-11-29T09:52:45.977Z,13.37
2018-11-29T09:55:14.845Z,15.23
2018-11-29T09:57:43.727Z,8.10
2018-11-29T10:00:15.772Z,13.13
2018-11-29T10:02:46.361Z,13.33
2018-11-29T10:05:14.848Z,9.43
2018-11-29T10:07:43.451Z,12.47
2018-11-29T10:10:12.137Z,11.57
2018-11-29T10:12:40.825Z,14.87
2018-11-29T10:15:11.058Z,13.00
2018-11-29T10:17:39.754Z,10.33
2018-11-29T10:20:11.522Z,14.10
2018-11-29T10:22:41.116Z,16.37
2018-11-29T10:25:12.145Z,12.97
2018-11-29T10:27:41.776Z,16.33
2018-11-29T10:30:14.321Z,16.77
2018-11-29T10:32:43.012Z,9.10
2018-11-29T10:35:11.797Z,14.17
2018-11-29T10:37:40.497Z,16.80
2018-11-29T10:40:10.094Z,15.90
2018-11-29T10:42:38.788Z,13.27
2018-11-29T10:45:14.013Z,14.70
2018-11-29T10:47:43.728Z,14.10
2018-11-29T10:50:13.524Z,15.60
2018-11-29T10:52:42.246Z,14.20
2018-11-29T10:55:20.284Z,11.43
2018-11-29T10:57:48.985Z,15.17
2018-11-29T11:00:30.217Z,14.30
2018-11-29T11:03:12.209Z,16.20
2018-11-29T11:05:40.964Z,12.97
2018-11-29T11:08:09.788Z,14.70
2018-11-29T11:10:39.313Z,12.67
2018-11-29T11:13:08.216Z,19.17
2018-11-29T11:15:37.341Z,15.50
2018-11-29T11:18:07.109Z,12.87
2018-11-29T11:20:35.845Z,16.03
2018-11-29T11:23:04.613Z,10.60
2018-11-29T11:25:34.320Z,15.10
2018-11-29T11:28:03.541Z,12.20
2018-11-29T11:30:32.365Z,14.87
2018-11-29T11:33:01.052Z,15.70
2018-11-29T11:35:30.568Z,13.93
2018-11-29T11:37:59.266Z,11.93
2018-11-29T11:40:28.870Z,15.60
2018-11-29T11:42:57.561Z,14.60
2018-11-29T11:45:26.274Z,16.60
2018-11-29T11:47:54.971Z,12.23
2018-11-29T11:50:24.565Z,11.20
2018-11-29T11:52:54.373Z,12.67
2018-11-29T11:55:29.681Z,12.87
2018-11-29T11:57:51.776Z,17.67
2018-11-29T12:00:22.709Z,10.90
2018-11-29T12:02:58.637Z,14.10
2018-11-29T12:05:27.325Z,11.80
2018-11-29T12:07:56.034Z,18.97
2018-11-29T12:10:24.737Z,14.17
2018-11-29T12:12:53.519Z,13.30
2018-11-29T12:15:22.133Z,16.07
2018-11-29T12:17:50.850Z,10.50
2018-11-29T12:20:20.349Z,10.87
2018-11-29T12:22:49.037Z,13.57
2018-11-29T12:25:18.868Z,12.57
2018-11-29T12:27:47.636Z,16.83
2018-11-29T12:30:20.488Z,16.43
2018-11-29T12:32:49.245Z,16.73
2018-11-29T12:35:17.951Z,19.23
2018-11-29T12:37:46.660Z,41.30
2018-11-29T12:40:16.048Z,23.80
2018-11-29T12:42:44.753Z,18.43
2018-11-29T12:45:15.102Z,13.47
2018-11-29T12:47:44.096Z,19.63
2018-11-29T12:50:14.865Z,17.47
2018-11-29T12:52:43.565Z,18.37
2018-11-29T12:55:13.154Z,16.00
2018-11-29T12:57:42.261Z,20.30
2018-11-29T13:00:15.663Z,13.93
2018-11-29T13:02:45.584Z,14.80
2018-11-29T13:05:14.333Z,19.90
2018-11-29T13:07:43.435Z,13.67
2018-11-29T13:10:12.553Z,18.73
2018-11-29T13:12:41.253Z,33.50
2018-11-29T13:15:15.359Z,25.60
2018-11-29T13:17:43.949Z,20.48
2018-11-29T13:20:14.673Z,24.50
2018-11-29T13:22:43.409Z,24.97
2018-11-29T13:25:15.109Z,20.47
2018-11-29T13:27:43.813Z,29.07
2018-11-29T13:30:13.503Z,27.77
2018-11-29T13:32:42.208Z,77.83
2018-11-29T13:35:15.754Z,90.23
2018-11-29T13:37:48.797Z,252.97
2018-11-29T13:42:47.274Z,83.57
2018-11-29T13:45:15.975Z,290.73
2018-11-29T13:47:44.674Z,193.27
2018-11-29T13:50:14.388Z,69.03
2018-11-29T13:52:43.186Z,38.97
2018-11-29T13:55:12.673Z,19.77
2018-11-29T13:57:42.479Z,45.47
2018-11-29T14:00:21.712Z,24.47
2018-11-29T14:02:52.937Z,24.47
2018-11-29T14:05:21.632Z,35.17
2018-11-29T14:07:50.329Z,23.60
2018-11-29T14:10:20.098Z,19.87
2018-11-29T14:12:49.916Z,22.23
2018-11-29T14:15:28.157Z,19.57
2018-11-29T14:17:56.851Z,16.10
2018-11-29T14:20:25.537Z,23.17
2018-11-29T14:22:54.324Z,68.97
2018-11-29T14:25:23.028Z,22.63
2018-11-29T14:27:52.985Z,24.97
2018-11-29T14:30:22.881Z,17.80
2018-11-29T14:32:52.188Z,19.77
2018-11-29T14:35:20.960Z,21.23
2018-11-29T14:37:49.664Z,26.57
2018-11-29T14:40:20.387Z,21.67
2018-11-29T14:42:49.185Z,18.40
2018-11-29T14:45:18.880Z,15.33
2018-11-29T14:47:47.605Z,20.83
2018-11-29T14:50:18.820Z,17.30
2018-11-29T14:52:47.508Z,13.27
2018-11-29T14:55:16.217Z,28.00
2018-11-29T14:57:44.938Z,22.97
2018-11-29T15:00:13.718Z,20.63
2018-11-29T15:02:42.594Z,19.97
2018-11-29T15:05:16.564Z,12.27
2018-11-29T15:07:45.244Z,18.93
2018-11-29T15:10:13.941Z,18.77
2018-11-29T15:12:42.704Z,15.77
2018-11-29T15:15:12.221Z,17.50
2018-11-29T15:17:41.713Z,14.60
2018-11-29T15:20:12.758Z,15.47
2018-11-29T15:22:41.469Z,18.83
2018-11-29T15:25:10.979Z,9.60
2018-11-29T15:27:40.080Z,14.90
2018-11-29T15:30:13.249Z,19.67
2018-11-29T15:32:41.946Z,14.20
2018-11-29T15:35:10.661Z,16.20
2018-11-29T15:37:39.381Z,15.23
2018-11-29T15:40:13.405Z,21.90
2018-11-29T15:42:42.138Z,15.30
2018-11-29T15:45:15.090Z,22.93
2018-11-29T15:47:43.785Z,20.03
2018-11-29T15:50:13.534Z,16.53
2018-11-29T15:52:42.190Z,14.50
2018-11-29T15:55:17.668Z,24.23
2018-11-29T15:57:47.214Z,13.70
2018-11-29T16:00:20.912Z,13.90
2018-11-29T16:02:50.196Z,13.93
2018-11-29T16:05:19.005Z,16.50
2018-11-29T16:07:47.706Z,14.77
2018-11-29T16:10:18.626Z,11.47
2018-11-29T16:12:47.321Z,7.63
2018-11-29T16:15:16.922Z,13.20
2018-11-29T16:17:46.189Z,15.10
2018-11-29T16:20:17.155Z,16.70
2018-11-29T16:22:45.037Z,13.23
2018-11-29T16:25:14.950Z,11.47
2018-11-29T16:27:44.405Z,12.33
2018-11-29T16:30:36.577Z,10.40
2018-11-29T16:33:11.013Z,10.30
2018-11-29T16:35:39.700Z,11.30
2018-11-29T16:38:08.405Z,18.77
2018-11-29T16:40:37.175Z,10.13
2018-11-29T16:43:06.726Z,10.60
2018-11-29T16:45:35.820Z,7.00
2018-11-29T16:48:05.047Z,9.30
2018-11-29T16:50:33.300Z,12.80
2018-11-29T16:53:01.994Z,6.90
2018-11-29T16:55:30.773Z,10.23
2018-11-29T16:58:01.507Z,12.53
2018-11-29T17:00:30.209Z,13.73
2018-11-29T17:02:58.965Z,14.90
2018-11-29T17:05:27.668Z,12.70
2018-11-29T17:07:57.013Z,12.53
2018-11-29T17:10:25.702Z,8.50
2018-11-29T17:12:56.115Z,23.50
2018-11-29T17:15:24.734Z,14.03
2018-11-29T17:17:53.226Z,12.27
2018-11-29T17:20:21.636Z,11.63
2018-11-29T17:22:51.105Z,10.90
2018-11-29T17:25:19.595Z,9.23
2018-11-29T17:27:48.136Z,14.33
2018-11-29T17:30:18.568Z,9.87
2018-11-29T17:32:47.341Z,7.73
2018-11-29T17:35:15.754Z,13.40
2018-11-29T17:37:44.356Z,7.83
2018-11-29T17:40:14.169Z,11.00
2018-11-29T17:42:43.065Z,8.40
2018-11-29T17:45:12.321Z,12.43
2018-11-29T17:47:40.983Z,15.30
2018-11-29T17:50:13.291Z,19.43
2018-11-29T17:52:41.993Z,9.87
2018-11-29T17:55:10.495Z,15.03
2018-11-29T17:57:39.105Z,9.37
2018-11-29T18:00:12.135Z,12.90
2018-11-29T18:02:40.767Z,16.40
2018-11-29T18:05:09.381Z,14.93
2018-11-29T18:07:38.069Z,14.50
2018-11-29T18:10:09.500Z,12.97
2018-11-29T18:12:38.127Z,14.33
2018-11-29T18:15:08.508Z,11.90
2018-11-29T18:17:37.108Z,12.33
2018-11-29T18:20:07.341Z,8.37
2018-11-29T18:22:36.732Z,16.13
2018-11-29T18:25:06.420Z,11.50
2018-11-29T18:27:34.824Z,12.63
2018-11-29T18:30:03.476Z,16.43
2018-11-29T18:32:32.077Z,11.27
2018-11-29T18:35:00.588Z,16.63
2018-11-29T18:37:29.552Z,17.73
2018-11-29T18:39:59.011Z,21.53
2018-11-29T18:42:27.504Z,14.40
2018-11-29T18:44:55.912Z,17.07
2018-11-29T18:47:24.612Z,17.37
2018-11-29T18:49:53.116Z,13.47
2018-11-29T18:52:21.520Z,12.83
2018-11-29T18:54:50.152Z,12.17
2018-11-29T18:57:18.749Z,16.00
2018-11-29T18:59:47.382Z,13.97
2018-11-29T19:02:15.985Z,21.37
2018-11-29T19:04:44.492Z,19.00
2018-11-29T19:07:13.020Z,33.70
2018-11-29T19:09:41.457Z,23.30
2018-11-29T19:12:10.061Z,18.83
2018-11-29T19:14:38.574Z,13.60
2018-11-29T19:17:07.184Z,15.90
2018-11-29T19:19:35.692Z,21.73
2018-11-29T19:22:04.120Z,20.27
2018-11-29T19:24:32.545Z,14.90
2018-11-29T19:27:01.180Z,13.23
2018-11-29T19:29:29.744Z,11.70
2018-11-29T19:31:58.156Z,24.30
2018-11-29T19:34:27.041Z,14.15
2018-11-29T19:36:55.749Z,14.97
2018-11-29T19:39:24.257Z,12.90
2018-11-29T19:41:52.865Z,15.73
2018-11-29T19:44:21.566Z,17.27
2018-11-29T19:46:50.156Z,21.13
2018-11-29T19:49:18.558Z,13.70
2018-11-29T19:51:47.173Z,17.73
2018-11-29T19:54:16.818Z,14.53
2018-11-29T19:56:44.187Z,14.73
2018-11-29T19:59:12.589Z,12.30
2018-11-29T20:01:41.004Z,16.30
2018-11-29T20:04:09.413Z,19.53
2018-11-29T20:06:38.037Z,17.60
2018-11-29T20:09:06.540Z,14.60
2018-11-29T20:11:35.035Z,11.10
2018-11-29T20:14:03.432Z,15.53
2018-11-29T20:16:32.052Z,16.70
2018-11-29T20:19:00.745Z,15.00
2018-11-29T20:21:29.271Z,12.10
2018-11-29T20:23:58.377Z,15.15
2018-11-29T20:26:27.792Z,10.67
2018-11-29T20:28:56.401Z,12.57
2018-11-29T20:31:25.023Z,11.30
2018-11-29T20:33:53.499Z,13.63
2018-11-29T20:36:22.240Z,12.77
2018-11-29T20:38:51.832Z,17.33
2018-11-29T20:41:21.056Z,12.80
2018-11-29T20:43:49.544Z,13.77
2018-11-29T20:46:18.684Z,11.53
2018-11-29T20:48:47.997Z,10.73
2018-11-29T20:51:16.704Z,14.80
2018-11-29T20:53:45.401Z,10.90
2018-11-29T20:56:14.984Z,7.20
2018-11-29T20:58:43.482Z,14.70
2018-11-29T21:01:11.903Z,13.40
2018-11-29T21:03:40.372Z,14.13
2018-11-29T21:06:10.993Z,11.37
2018-11-29T21:08:39.673Z,8.27
2018-11-29T21:11:08.179Z,13.83
2018-11-29T21:13:36.893Z,14.90
2018-11-29T21:16:06.205Z,11.40
2018-11-29T21:18:34.984Z,11.37
2018-11-29T21:21:03.478Z,12.70
2018-11-29T21:23:31.884Z,10.87
2018-11-29T21:26:00.356Z,10.47
2018-11-29T21:28:29.514Z,13.65
2018-11-29T21:30:59.755Z,10.03
2018-11-29T21:33:28.892Z,12.20
2018-11-29T21:35:57.313Z,16.97
2018-11-29T21:38:25.913Z,8.37
2018-11-29T21:40:56.180Z,8.57
2018-11-29T21:43:24.585Z,8.60
2018-11-29T21:45:53.212Z,9.67
2018-11-29T21:48:21.817Z,10.98
2018-11-29T21:50:50.291Z,9.90
2018-11-29T21:53:18.712Z,10.73
2018-11-29T21:55:47.112Z,9.17
2018-11-29T21:58:15.515Z,12.67
2018-11-29T22:00:43.916Z,9.33
2018-11-29T22:03:12.407Z,11.63
2018-11-29T22:05:40.811Z,7.60
2018-11-29T22:08:09.259Z,11.17
2018-11-29T22:10:37.869Z,17.50
2018-11-29T22:13:06.573Z,12.40
2018-11-29T22:15:35.092Z,7.77
2018-11-29T22:18:20.595Z,12.80
2018-11-29T22:20:49.869Z,14.60
2018-11-29T22:23:18.481Z,8.43
2018-11-29T22:25:46.975Z,11.03
2018-11-29T22:28:15.397Z,9.95
2018-11-29T22:30:44.028Z,8.37
2018-11-29T22:33:12.733Z,9.27
2018-11-29T22:35:41.262Z,8.70
2018-11-29T22:38:09.821Z,12.73
2018-11-29T22:40:38.413Z,6.83
2018-11-29T22:43:07.096Z,9.97
2018-11-29T22:45:35.693Z,9.53
2018-11-29T22:48:04.099Z,11.43
2018-11-29T22:50:32.507Z,15.27
2018-11-29T22:53:01.124Z,11.83
2018-11-29T22:55:29.612Z,14.73
2018-11-29T22:57:58.020Z,9.03
2018-11-29T23:00:31.817Z,13.03
2018-11-29T23:03:00.321Z,14.17
2018-11-29T23:05:28.921Z,11.37
2018-11-29T23:07:58.444Z,12.95
2018-11-29T23:10:27.816Z,11.27
2018-11-29T23:12:55.752Z,12.23
2018-11-29T23:15:24.248Z,10.53
2018-11-29T23:17:52.658Z,9.20
2018-11-29T23:20:21.252Z,11.43
2018-11-29T23:22:49.752Z,8.07
2018-11-29T23:25:18.228Z,6.37
2018-11-29T23:27:46.637Z,7.37
2018-11-29T23:30:16.975Z,8.80
2018-11-29T23:32:45.553Z,13.35
2018-11-29T23:35:14.308Z,11.00
2018-11-29T23:37:43.451Z,9.03
2018-11-29T23:40:16.793Z,17.33
2018-11-29T23:42:45.934Z,9.87
2018-11-29T23:45:14.769Z,10.17
2018-11-29T23:47:43.510Z,12.17
2018-11-29T23:50:13.513Z,14.63
2018-11-29T23:52:42.059Z,10.87
2018-11-29T23:55:12.005Z,8.93
2018-11-29T23:57:40.725Z,10.13
